createdAt,value
2023-03-06T00:07:08.967Z,-8.97
2023-03-06T00:17:14.812Z,-9.02
2023-03-06T00:27:20.430Z,-9.09
2023-03-06T00:37:27.227Z,-9.05
2023-03-06T00:47:32.838Z,-8.89
2023-03-06T00:57:38.855Z,-8.72
2023-03-06T01:07:44.520Z,-8.67
2023-03-06T01:17:53.111Z,-8.60
2023-03-06T01:27:58.850Z,-8.55
2023-03-06T01:38:04.657Z,-8.56
2023-03-06T01:48:10.416Z,-8.63
2023-03-06T01:58:19.553Z,-8.81
2023-03-06T02:08:26.226Z,-8.93
2023-03-06T02:18:32.355Z,-9.07
2023-03-06T02:28:39.912Z,-9.16
2023-03-06T02:38:49.990Z,-9.18
2023-03-06T02:48:56.011Z,-9.19
2023-03-06T02:59:01.722Z,-9.23
2023-03-06T03:09:07.486Z,-9.37
2023-03-06T03:19:13.514Z,-9.50
2023-03-06T03:29:19.660Z,-9.61
2023-03-06T03:39:25.525Z,-9.71
2023-03-06T03:49:31.631Z,-9.69
2023-03-06T03:59:37.289Z,-9.70
2023-03-06T04:09:43.088Z,-9.52
2023-03-06T04:19:49.131Z,-9.33
2023-03-06T04:29:56.485Z,-9.06
2023-03-06T04:40:02.141Z,-8.71
2023-03-06T04:50:11.105Z,-8.25
2023-03-06T05:00:19.968Z,-7.63
2023-03-06T05:10:25.829Z,-7.17
2023-03-06T05:20:32.260Z,-6.86
2023-03-06T05:30:38.367Z,-6.43
2023-03-06T05:40:45.993Z,-6.00
2023-03-06T05:50:57.840Z,-5.59
2023-03-06T06:01:09.400Z,-5.19
2023-03-06T06:11:15.971Z,-4.78
2023-03-06T06:21:22.046Z,-4.33
2023-03-06T06:31:27.679Z,-3.86
2023-03-06T06:41:53.103Z,-3.43
2023-03-06T06:51:59.126Z,-2.92
2023-03-06T07:02:05.868Z,-2.41
2023-03-06T07:12:11.757Z,-1.84
2023-03-06T07:22:17.437Z,-1.44
2023-03-06T07:32:23.187Z,-1.18
2023-03-06T07:42:29.299Z,-0.90
2023-03-06T07:52:34.995Z,-0.77
2023-03-06T08:02:42.162Z,-0.90
2023-03-06T08:12:48.160Z,-0.87
2023-03-06T08:22:53.879Z,-0.73
2023-03-06T08:32:59.847Z,-0.77
2023-03-06T08:43:06.404Z,-0.79
2023-03-06T08:53:12.064Z,-0.72
2023-03-06T09:03:17.653Z,-0.64
2023-03-06T09:13:23.276Z,-0.73
2023-03-06T09:23:29.012Z,-0.66
2023-03-06T09:33:34.710Z,-0.48
2023-03-06T09:43:42.664Z,-0.34
2023-03-06T09:54:02.319Z,-0.14
2023-03-06T10:04:20.565Z,0.44
2023-03-06T10:14:36.507Z,0.97
2023-03-06T10:24:52.217Z,1.65
2023-03-06T10:35:01.277Z,1.84
2023-03-06T10:45:15.327Z,1.80
2023-03-06T10:55:31.626Z,2.07
2023-03-06T11:05:38.010Z,2.36
2023-03-06T11:15:59.202Z,2.44
2023-03-06T11:26:23.820Z,2.34
2023-03-06T11:36:37.900Z,2.26
2023-03-06T11:46:50.595Z,2.04
2023-03-06T11:57:00.633Z,2.14
2023-03-06T12:07:22.447Z,2.44
2023-03-06T12:17:37.547Z,3.19
2023-03-06T12:27:51.002Z,3.78
2023-03-06T12:38:08.490Z,4.00
2023-03-06T12:48:20.194Z,3.92
2023-03-06T12:58:47.995Z,3.91
2023-03-06T13:09:21.005Z,3.60
2023-03-06T13:19:27.951Z,3.57
2023-03-06T13:30:14.828Z,3.43
2023-03-06T13:40:35.498Z,3.47
2023-03-06T13:50:43.519Z,3.27
2023-03-06T14:01:19.162Z,3.36
2023-03-06T14:11:25.820Z,3.31
2023-03-06T14:21:38.001Z,3.23
2023-03-06T14:31:45.305Z,3.25
2023-03-06T14:41:51.297Z,3.25
2023-03-06T14:52:00.558Z,3.22
2023-03-06T15:02:10.498Z,3.14
2023-03-06T15:12:38.708Z,2.97
2023-03-06T15:22:44.992Z,2.76
2023-03-06T15:32:50.742Z,2.23
2023-03-06T15:42:56.817Z,1.70
2023-03-06T15:53:02.706Z,1.41
2023-03-06T16:03:10.759Z,1.03
2023-03-06T16:13:20.379Z,0.72
2023-03-06T16:23:26.263Z,0.51
2023-03-06T16:33:32.120Z,0.31
2023-03-06T16:43:37.858Z,0.17
2023-03-06T16:53:43.917Z,0.04
2023-03-06T17:03:49.921Z,-0.15
2023-03-06T17:13:55.797Z,-0.15
2023-03-06T17:24:03.731Z,-0.27
2023-03-06T17:34:09.567Z,-0.33
2023-03-06T17:44:16.479Z,-0.35
2023-03-06T17:54:22.380Z,-0.36
2023-03-06T18:04:28.699Z,-0.37
2023-03-06T18:14:34.627Z,-0.33
2023-03-06T18:24:40.265Z,-0.30
2023-03-06T18:34:46.286Z,-0.24
2023-03-06T18:44:51.921Z,-0.09
2023-03-06T18:54:57.576Z,-0.05
2023-03-06T19:05:03.351Z,-0.01
2023-03-06T19:15:11.315Z,0.01
2023-03-06T19:25:17.299Z,-0.11
2023-03-06T19:35:23.507Z,-0.16
2023-03-06T19:45:29.182Z,-0.22
2023-03-06T19:55:34.853Z,-0.20
2023-03-06T20:05:48.322Z,-0.17
2023-03-06T20:15:54.171Z,-0.13
2023-03-06T20:26:04.118Z,0.00
2023-03-06T20:36:15.272Z,-0.00
2023-03-06T20:46:22.760Z,-0.06
2023-03-06T20:56:30.297Z,-0.12
2023-03-06T21:06:36.593Z,-0.42
2023-03-06T21:16:42.679Z,-0.51
2023-03-06T21:26:48.581Z,-0.64
2023-03-06T21:36:54.217Z,-0.63
2023-03-06T21:46:59.927Z,-0.60
2023-03-06T21:57:05.901Z,-0.72
2023-03-06T22:07:11.624Z,-0.82
2023-03-06T22:17:17.529Z,-0.96
2023-03-06T22:27:23.393Z,-1.05
2023-03-06T22:37:29.081Z,-1.12
2023-03-06T22:47:36.515Z,-1.14
2023-03-06T22:57:44.502Z,-1.12
2023-03-06T23:07:50.466Z,-1.24
2023-03-06T23:17:56.226Z,-1.38
2023-03-06T23:28:02.074Z,-1.57
2023-03-06T23:38:07.758Z,-1.68
2023-03-06T23:48:17.829Z,-1.76
2023-03-06T23:58:23.785Z,-1.95
